sensor_id;sensor_type;location;lat;lon;timestamp;temperature;humidity
74511;DHT22;62991;50.040;18.400;2022-09-03T00:01:41;16.10;50.60
74511;DHT22;62991;50.040;18.400;2022-09-03T00:05:15;16.10;50.60
74511;DHT22;62991;50.040;18.400;2022-09-03T00:08:24;16.00;50.60
74511;DHT22;62991;50.040;18.400;2022-09-03T00:12:01;16.00;50.50
74511;DHT22;62991;50.040;18.400;2022-09-03T00:15:17;16.00;50.60
74511;DHT22;62991;50.040;18.400;2022-09-03T00:18:21;16.00;50.50
74511;DHT22;62991;50.040;18.400;2022-09-03T00:21:35;15.90;50.50
74511;DHT22;62991;50.040;18.400;2022-09-03T00:24:38;15.90;50.60
74511;DHT22;62991;50.040;18.400;2022-09-03T00:27:42;15.90;50.60
74511;DHT22;62991;50.040;18.400;2022-09-03T00:30:47;15.90;50.50
74511;DHT22;62991;50.040;18.400;2022-09-03T00:37:17;15.90;50.50
74511;DHT22;62991;50.040;18.400;2022-09-03T00:44:23;15.90;50.50
74511;DHT22;62991;50.040;18.400;2022-09-03T00:57:57;15.90;50.50
74511;DHT22;62991;50.040;18.400;2022-09-03T01:01:07;15.90;50.50
74511;DHT22;62991;50.040;18.400;2022-09-03T01:07:40;15.90;50.50
74511;DHT22;62991;50.040;18.400;2022-09-03T01:14:06;15.90;50.50
74511;DHT22;62991;50.040;18.400;2022-09-03T01:37:54;15.70;50.50
74511;DHT22;62991;50.040;18.400;2022-09-03T01:41:13;15.70;50.60
74511;DHT22;62991;50.040;18.400;2022-09-03T01:51:27;15.60;50.70
74511;DHT22;62991;50.040;18.400;2022-09-03T01:57:55;15.60;50.80
74511;DHT22;62991;50.040;18.400;2022-09-03T02:01:06;15.60;50.80
74511;DHT22;62991;50.040;18.400;2022-09-03T02:04:22;15.60;50.80
74511;DHT22;62991;50.040;18.400;2022-09-03T02:07:27;15.60;50.80
74511;DHT22;62991;50.040;18.400;2022-09-03T02:13:38;15.60;50.90
74511;DHT22;62991;50.040;18.400;2022-09-03T02:16:40;15.60;50.90
74511;DHT22;62991;50.040;18.400;2022-09-03T02:19:43;15.60;50.90
74511;DHT22;62991;50.040;18.400;2022-09-03T02:22:46;15.50;50.90
74511;DHT22;62991;50.040;18.400;2022-09-03T02:25:50;15.50;51.00
74511;DHT22;62991;50.040;18.400;2022-09-03T02:28:53;15.50;51.00
74511;DHT22;62991;50.040;18.400;2022-09-03T02:31:54;15.50;51.00
74511;DHT22;62991;50.040;18.400;2022-09-03T02:34:54;15.50;51.10
74511;DHT22;62991;50.040;18.400;2022-09-03T02:37:55;15.50;51.10
74511;DHT22;62991;50.040;18.400;2022-09-03T02:40:56;15.50;51.20
74511;DHT22;62991;50.040;18.400;2022-09-03T02:47:05;15.40;51.30
74511;DHT22;62991;50.040;18.400;2022-09-03T02:50:06;15.40;51.30
74511;DHT22;62991;50.040;18.400;2022-09-03T02:53:08;15.40;51.30
74511;DHT22;62991;50.040;18.400;2022-09-03T02:56:09;15.40;51.30
74511;DHT22;62991;50.040;18.400;2022-09-03T02:59:10;15.40;51.40
74511;DHT22;62991;50.040;18.400;2022-09-03T03:02:12;15.40;51.40
74511;DHT22;62991;50.040;18.400;2022-09-03T03:05:25;15.40;51.50
74511;DHT22;62991;50.040;18.400;2022-09-03T03:08:28;15.40;51.50
74511;DHT22;62991;50.040;18.400;2022-09-03T03:11:29;15.40;51.50
74511;DHT22;62991;50.040;18.400;2022-09-03T03:14:30;15.40;51.50
74511;DHT22;62991;50.040;18.400;2022-09-03T03:17:31;15.30;51.60
74511;DHT22;62991;50.040;18.400;2022-09-03T03:20:32;15.30;51.60
74511;DHT22;62991;50.040;18.400;2022-09-03T03:23:34;15.30;51.60
74511;DHT22;62991;50.040;18.400;2022-09-03T03:26:35;15.30;51.60
74511;DHT22;62991;50.040;18.400;2022-09-03T03:29:35;15.30;51.70
74511;DHT22;62991;50.040;18.400;2022-09-03T03:32:37;15.30;51.70
74511;DHT22;62991;50.040;18.400;2022-09-03T03:35:38;15.30;51.80
74511;DHT22;62991;50.040;18.400;2022-09-03T03:38:42;15.30;51.80
74511;DHT22;62991;50.040;18.400;2022-09-03T03:41:43;15.20;51.80
74511;DHT22;62991;50.040;18.400;2022-09-03T03:44:43;15.20;51.90
74511;DHT22;62991;50.040;18.400;2022-09-03T03:47:44;15.20;51.90
74511;DHT22;62991;50.040;18.400;2022-09-03T03:50:45;15.20;51.90
74511;DHT22;62991;50.040;18.400;2022-09-03T03:53:46;15.20;51.90
74511;DHT22;62991;50.040;18.400;2022-09-03T03:56:47;15.20;52.00
74511;DHT22;62991;50.040;18.400;2022-09-03T03:59:49;15.20;52.00
74511;DHT22;62991;50.040;18.400;2022-09-03T04:02:49;15.10;52.00
74511;DHT22;62991;50.040;18.400;2022-09-03T04:05:54;15.10;52.10
74511;DHT22;62991;50.040;18.400;2022-09-03T04:08:56;15.10;52.20
74511;DHT22;62991;50.040;18.400;2022-09-03T04:11:56;15.10;52.20
74511;DHT22;62991;50.040;18.400;2022-09-03T04:14:57;15.10;52.20
74511;DHT22;62991;50.040;18.400;2022-09-03T04:17:58;15.10;52.20
74511;DHT22;62991;50.040;18.400;2022-09-03T04:21:01;15.10;52.30
74511;DHT22;62991;50.040;18.400;2022-09-03T04:24:04;15.10;52.30
74511;DHT22;62991;50.040;18.400;2022-09-03T04:27:05;15.10;52.30
74511;DHT22;62991;50.040;18.400;2022-09-03T04:30:06;15.10;52.50
74511;DHT22;62991;50.040;18.400;2022-09-03T04:33:07;15.00;52.40
74511;DHT22;62991;50.040;18.400;2022-09-03T04:36:10;15.10;52.50
74511;DHT22;62991;50.040;18.400;2022-09-03T04:39:11;15.10;52.50
74511;DHT22;62991;50.040;18.400;2022-09-03T04:42:12;15.00;52.50
74511;DHT22;62991;50.040;18.400;2022-09-03T04:45:13;15.00;52.50
74511;DHT22;62991;50.040;18.400;2022-09-03T04:48:18;15.00;52.60
74511;DHT22;62991;50.040;18.400;2022-09-03T04:51:22;15.00;52.60
74511;DHT22;62991;50.040;18.400;2022-09-03T04:54:23;15.00;52.60
74511;DHT22;62991;50.040;18.400;2022-09-03T04:57:24;15.00;52.70
74511;DHT22;62991;50.040;18.400;2022-09-03T05:00:25;15.00;52.70
74511;DHT22;62991;50.040;18.400;2022-09-03T05:03:25;15.00;52.70
74511;DHT22;62991;50.040;18.400;2022-09-03T05:06:28;15.00;52.80
74511;DHT22;62991;50.040;18.400;2022-09-03T05:09:29;15.00;52.80
74511;DHT22;62991;50.040;18.400;2022-09-03T05:12:30;15.00;52.80
74511;DHT22;62991;50.040;18.400;2022-09-03T05:15:32;15.00;52.90
74511;DHT22;62991;50.040;18.400;2022-09-03T05:18:34;15.00;52.90
74511;DHT22;62991;50.040;18.400;2022-09-03T05:21:38;15.00;53.00
74511;DHT22;62991;50.040;18.400;2022-09-03T05:24:39;15.10;53.00
74511;DHT22;62991;50.040;18.400;2022-09-03T05:27:39;15.10;53.00
74511;DHT22;62991;50.040;18.400;2022-09-03T05:30:40;15.10;53.10
74511;DHT22;62991;50.040;18.400;2022-09-03T05:33:43;15.10;53.20
74511;DHT22;62991;50.040;18.400;2022-09-03T05:36:44;15.20;53.20
74511;DHT22;62991;50.040;18.400;2022-09-03T05:39:46;15.20;53.20
74511;DHT22;62991;50.040;18.400;2022-09-03T05:42:47;15.30;53.20
74511;DHT22;62991;50.040;18.400;2022-09-03T05:45:47;15.30;53.30
74511;DHT22;62991;50.040;18.400;2022-09-03T05:48:48;15.40;53.40
74511;DHT22;62991;50.040;18.400;2022-09-03T05:51:49;15.40;53.40
74511;DHT22;62991;50.040;18.400;2022-09-03T05:54:50;15.50;53.40
74511;DHT22;62991;50.040;18.400;2022-09-03T05:57:51;15.50;53.40
74511;DHT22;62991;50.040;18.400;2022-09-03T06:00:52;15.50;53.50
74511;DHT22;62991;50.040;18.400;2022-09-03T06:03:59;15.60;53.60
74511;DHT22;62991;50.040;18.400;2022-09-03T06:07:00;15.70;53.60
74511;DHT22;62991;50.040;18.400;2022-09-03T06:10:01;15.80;53.70
74511;DHT22;62991;50.040;18.400;2022-09-03T06:13:04;15.80;53.70
74511;DHT22;62991;50.040;18.400;2022-09-03T06:16:06;15.90;53.80
74511;DHT22;62991;50.040;18.400;2022-09-03T06:19:08;16.00;54.00
74511;DHT22;62991;50.040;18.400;2022-09-03T06:22:09;16.10;54.10
74511;DHT22;62991;50.040;18.400;2022-09-03T06:25:10;16.10;54.20
74511;DHT22;62991;50.040;18.400;2022-09-03T06:28:11;16.20;54.30
74511;DHT22;62991;50.040;18.400;2022-09-03T06:31:14;16.30;54.30
74511;DHT22;62991;50.040;18.400;2022-09-03T06:34:15;16.40;54.40
74511;DHT22;62991;50.040;18.400;2022-09-03T06:37:18;16.50;54.50
74511;DHT22;62991;50.040;18.400;2022-09-03T06:40:19;16.60;54.50
74511;DHT22;62991;50.040;18.400;2022-09-03T06:43:22;16.60;54.50
74511;DHT22;62991;50.040;18.400;2022-09-03T06:46:24;16.70;54.50
74511;DHT22;62991;50.040;18.400;2022-09-03T06:49:24;16.70;54.60
74511;DHT22;62991;50.040;18.400;2022-09-03T06:52:25;16.80;54.70
74511;DHT22;62991;50.040;18.400;2022-09-03T06:55:26;16.80;54.70
74511;DHT22;62991;50.040;18.400;2022-09-03T06:58:31;16.90;54.80
74511;DHT22;62991;50.040;18.400;2022-09-03T07:01:33;17.00;54.80
74511;DHT22;62991;50.040;18.400;2022-09-03T07:04:34;17.00;54.80
74511;DHT22;62991;50.040;18.400;2022-09-03T07:07:35;17.10;54.80
74511;DHT22;62991;50.040;18.400;2022-09-03T07:10:36;17.20;54.90
74511;DHT22;62991;50.040;18.400;2022-09-03T07:13:42;17.20;54.90
74511;DHT22;62991;50.040;18.400;2022-09-03T07:16:44;17.30;55.00
74511;DHT22;62991;50.040;18.400;2022-09-03T07:19:45;17.30;55.00
74511;DHT22;62991;50.040;18.400;2022-09-03T07:22:46;17.40;55.00
74511;DHT22;62991;50.040;18.400;2022-09-03T07:25:55;17.40;55.00
74511;DHT22;62991;50.040;18.400;2022-09-03T07:28:56;17.50;55.00
74511;DHT22;62991;50.040;18.400;2022-09-03T07:31:57;17.50;55.00
74511;DHT22;62991;50.040;18.400;2022-09-03T07:34:58;17.60;55.00
74511;DHT22;62991;50.040;18.400;2022-09-03T07:37:58;17.60;55.10
74511;DHT22;62991;50.040;18.400;2022-09-03T07:41:01;17.70;55.10
74511;DHT22;62991;50.040;18.400;2022-09-03T07:44:03;17.70;55.10
74511;DHT22;62991;50.040;18.400;2022-09-03T07:47:07;17.80;55.10
74511;DHT22;62991;50.040;18.400;2022-09-03T07:50:08;17.80;55.10
74511;DHT22;62991;50.040;18.400;2022-09-03T07:53:08;17.80;55.20
74511;DHT22;62991;50.040;18.400;2022-09-03T07:56:10;17.90;55.20
74511;DHT22;62991;50.040;18.400;2022-09-03T07:59:12;17.90;55.10
74511;DHT22;62991;50.040;18.400;2022-09-03T08:02:12;17.90;55.10
74511;DHT22;62991;50.040;18.400;2022-09-03T08:05:13;18.00;55.10
74511;DHT22;62991;50.040;18.400;2022-09-03T08:08:14;18.00;55.20
74511;DHT22;62991;50.040;18.400;2022-09-03T08:11:17;18.10;55.20
74511;DHT22;62991;50.040;18.400;2022-09-03T08:14:20;18.10;55.20
74511;DHT22;62991;50.040;18.400;2022-09-03T08:17:21;18.10;55.20
74511;DHT22;62991;50.040;18.400;2022-09-03T08:20:22;18.20;55.20
74511;DHT22;62991;50.040;18.400;2022-09-03T08:23:22;18.20;55.30
74511;DHT22;62991;50.040;18.400;2022-09-03T08:26:23;18.30;55.30
74511;DHT22;62991;50.040;18.400;2022-09-03T08:29:24;18.30;55.30
74511;DHT22;62991;50.040;18.400;2022-09-03T08:32:26;18.40;55.30
74511;DHT22;62991;50.040;18.400;2022-09-03T08:35:27;18.40;55.30
74511;DHT22;62991;50.040;18.400;2022-09-03T08:38:32;18.50;55.30
74511;DHT22;62991;50.040;18.400;2022-09-03T08:44:59;18.50;55.40
74511;DHT22;62991;50.040;18.400;2022-09-03T08:48:08;18.60;55.40
74511;DHT22;62991;50.040;18.400;2022-09-03T08:51:10;18.70;55.40
74511;DHT22;62991;50.040;18.400;2022-09-03T08:54:12;18.70;55.30
74511;DHT22;62991;50.040;18.400;2022-09-03T08:57:13;18.80;55.30
74511;DHT22;62991;50.040;18.400;2022-09-03T09:00:16;18.90;55.30
74511;DHT22;62991;50.040;18.400;2022-09-03T09:06:50;18.90;55.20
74511;DHT22;62991;50.040;18.400;2022-09-03T09:10:13;19.00;55.40
74511;DHT22;62991;50.040;18.400;2022-09-03T09:13:24;19.00;55.40
74511;DHT22;62991;50.040;18.400;2022-09-03T09:16:43;19.00;55.40
74511;DHT22;62991;50.040;18.400;2022-09-03T09:23:26;19.10;55.70
74511;DHT22;62991;50.040;18.400;2022-09-03T09:26:29;19.20;55.80
74511;DHT22;62991;50.040;18.400;2022-09-03T09:29:37;19.20;55.90
74511;DHT22;62991;50.040;18.400;2022-09-03T09:32:38;19.20;56.00
74511;DHT22;62991;50.040;18.400;2022-09-03T09:35:39;19.30;55.90
74511;DHT22;62991;50.040;18.400;2022-09-03T09:38:42;19.40;55.90
74511;DHT22;62991;50.040;18.400;2022-09-03T09:42:01;19.40;55.90
74511;DHT22;62991;50.040;18.400;2022-09-03T09:45:09;19.40;55.80
74511;DHT22;62991;50.040;18.400;2022-09-03T09:48:31;19.50;55.70
74511;DHT22;62991;50.040;18.400;2022-09-03T09:51:36;19.50;55.70
74511;DHT22;62991;50.040;18.400;2022-09-03T09:54:38;19.50;55.70
74511;DHT22;62991;50.040;18.400;2022-09-03T09:57:39;19.50;55.60
74511;DHT22;62991;50.040;18.400;2022-09-03T10:00:40;19.60;55.60
74511;DHT22;62991;50.040;18.400;2022-09-03T10:04:12;19.60;55.70
74511;DHT22;62991;50.040;18.400;2022-09-03T10:10:27;19.70;55.60
74511;DHT22;62991;50.040;18.400;2022-09-03T10:13:54;19.70;55.60
74511;DHT22;62991;50.040;18.400;2022-09-03T10:17:04;19.80;55.80
74511;DHT22;62991;50.040;18.400;2022-09-03T10:20:30;19.80;55.70
74511;DHT22;62991;50.040;18.400;2022-09-03T10:24:03;19.90;55.70
74511;DHT22;62991;50.040;18.400;2022-09-03T10:27:09;20.00;55.60
74511;DHT22;62991;50.040;18.400;2022-09-03T10:30:12;20.10;55.30
74511;DHT22;62991;50.040;18.400;2022-09-03T10:33:23;20.10;55.20
74511;DHT22;62991;50.040;18.400;2022-09-03T10:39:53;20.20;55.20
74511;DHT22;62991;50.040;18.400;2022-09-03T10:46:02;20.30;55.30
74511;DHT22;62991;50.040;18.400;2022-09-03T10:49:47;20.40;55.30
74511;DHT22;62991;50.040;18.400;2022-09-03T10:56:21;20.50;55.20
74511;DHT22;62991;50.040;18.400;2022-09-03T11:06:28;20.80;55.10
74511;DHT22;62991;50.040;18.400;2022-09-03T11:12:42;20.90;55.10
74511;DHT22;62991;50.040;18.400;2022-09-03T11:15:47;21.00;55.20
74511;DHT22;62991;50.040;18.400;2022-09-03T11:18:53;21.00;54.90
74511;DHT22;62991;50.040;18.400;2022-09-03T11:21:54;21.10;54.70
74511;DHT22;62991;50.040;18.400;2022-09-03T11:24:58;21.10;54.60
74511;DHT22;62991;50.040;18.400;2022-09-03T11:34:47;21.30;54.30
74511;DHT22;62991;50.040;18.400;2022-09-03T11:44:18;21.40;54.10
74511;DHT22;62991;50.040;18.400;2022-09-03T11:47:22;21.40;54.00
74511;DHT22;62991;50.040;18.400;2022-09-03T11:50:29;21.40;53.90
74511;DHT22;62991;50.040;18.400;2022-09-03T11:53:35;21.40;53.90
74511;DHT22;62991;50.040;18.400;2022-09-03T11:56:35;21.50;53.80
74511;DHT22;62991;50.040;18.400;2022-09-03T11:59:37;21.50;53.70
74511;DHT22;62991;50.040;18.400;2022-09-03T12:02:48;21.60;53.60
74511;DHT22;62991;50.040;18.400;2022-09-03T12:18:34;22.00;53.30
74511;DHT22;62991;50.040;18.400;2022-09-03T12:21:37;22.10;53.20
74511;DHT22;62991;50.040;18.400;2022-09-03T12:24:40;22.10;52.90
74511;DHT22;62991;50.040;18.400;2022-09-03T12:27:44;22.10;52.80
74511;DHT22;62991;50.040;18.400;2022-09-03T12:30:46;22.10;52.70
74511;DHT22;62991;50.040;18.400;2022-09-03T12:33:57;22.10;52.70
74511;DHT22;62991;50.040;18.400;2022-09-03T12:36:58;22.10;52.60
74511;DHT22;62991;50.040;18.400;2022-09-03T12:39:59;22.10;52.60
74511;DHT22;62991;50.040;18.400;2022-09-03T12:43:14;22.00;52.50
74511;DHT22;62991;50.040;18.400;2022-09-03T12:46:15;22.00;52.60
74511;DHT22;62991;50.040;18.400;2022-09-03T12:49:16;22.00;52.70
74511;DHT22;62991;50.040;18.400;2022-09-03T12:55:42;22.30;52.70
74511;DHT22;62991;50.040;18.400;2022-09-03T12:58:58;22.50;52.70
74511;DHT22;62991;50.040;18.400;2022-09-03T13:02:09;22.70;52.50
74511;DHT22;62991;50.040;18.400;2022-09-03T13:05:16;22.90;52.30
74511;DHT22;62991;50.040;18.400;2022-09-03T13:08:21;23.10;52.10
74511;DHT22;62991;50.040;18.400;2022-09-03T13:11:23;23.20;51.90
74511;DHT22;62991;50.040;18.400;2022-09-03T13:14:26;23.40;51.80
74511;DHT22;62991;50.040;18.400;2022-09-03T13:21:09;23.80;51.40
74511;DHT22;62991;50.040;18.400;2022-09-03T13:24:17;24.20;51.10
74511;DHT22;62991;50.040;18.400;2022-09-03T13:31:05;25.30;50.50
74511;DHT22;62991;50.040;18.400;2022-09-03T13:34:19;26.00;49.70
74511;DHT22;62991;50.040;18.400;2022-09-03T13:37:26;26.80;49.30
74511;DHT22;62991;50.040;18.400;2022-09-03T13:40:44;27.80;48.90
74511;DHT22;62991;50.040;18.400;2022-09-03T13:47:42;29.90;46.50
74511;DHT22;62991;50.040;18.400;2022-09-03T13:50:19;30.60;45.40
74511;DHT22;62991;50.040;18.400;2022-09-03T13:57:01;32.30;43.60
74511;DHT22;62991;50.040;18.400;2022-09-03T14:00:12;33.30;42.70
74511;DHT22;62991;50.040;18.400;2022-09-03T14:06:41;34.70;41.80
74511;DHT22;62991;50.040;18.400;2022-09-03T14:10:34;35.10;40.80
74511;DHT22;62991;50.040;18.400;2022-09-03T14:13:55;35.40;40.10
74511;DHT22;62991;50.040;18.400;2022-09-03T14:27:08;34.70;38.50
74511;DHT22;62991;50.040;18.400;2022-09-03T14:36:35;33.10;39.00
74511;DHT22;62991;50.040;18.400;2022-09-03T14:39:55;32.70;39.20
74511;DHT22;62991;50.040;18.400;2022-09-03T14:43:11;32.40;39.30
74511;DHT22;62991;50.040;18.400;2022-09-03T14:59:54;32.20;39.40
74511;DHT22;62991;50.040;18.400;2022-09-03T15:03:02;32.00;39.40
74511;DHT22;62991;50.040;18.400;2022-09-03T15:06:39;31.70;39.60
74511;DHT22;62991;50.040;18.400;2022-09-03T15:10:04;31.50;39.60
74511;DHT22;62991;50.040;18.400;2022-09-03T15:26:46;30.30;40.30
74511;DHT22;62991;50.040;18.400;2022-09-03T15:36:21;29.50;40.70
74511;DHT22;62991;50.040;18.400;2022-09-03T15:39:27;29.30;40.90
74511;DHT22;62991;50.040;18.400;2022-09-03T15:42:31;29.10;41.10
74511;DHT22;62991;50.040;18.400;2022-09-03T15:48:58;28.80;41.40
74511;DHT22;62991;50.040;18.400;2022-09-03T15:55:42;28.50;41.70
74511;DHT22;62991;50.040;18.400;2022-09-03T15:59:47;28.20;41.90
74511;DHT22;62991;50.040;18.400;2022-09-03T16:05:54;27.80;42.20
74511;DHT22;62991;50.040;18.400;2022-09-03T16:09:01;27.50;42.40
74511;DHT22;62991;50.040;18.400;2022-09-03T16:12:30;27.20;42.70
74511;DHT22;62991;50.040;18.400;2022-09-03T16:15:47;27.00;43.10
74511;DHT22;62991;50.040;18.400;2022-09-03T16:19:13;26.80;43.30
74511;DHT22;62991;50.040;18.400;2022-09-03T16:22:30;26.70;43.50
74511;DHT22;62991;50.040;18.400;2022-09-03T16:25:43;26.60;43.60
74511;DHT22;62991;50.040;18.400;2022-09-03T16:29:05;26.50;43.70
74511;DHT22;62991;50.040;18.400;2022-09-03T16:38:58;26.30;44.00
74511;DHT22;62991;50.040;18.400;2022-09-03T16:45:30;26.00;44.20
74511;DHT22;62991;50.040;18.400;2022-09-03T16:48:54;25.90;44.30
74511;DHT22;62991;50.040;18.400;2022-09-03T16:52:08;25.70;44.50
74511;DHT22;62991;50.040;18.400;2022-09-03T17:24:53;24.00;46.40
74511;DHT22;62991;50.040;18.400;2022-09-03T17:51:32;22.70;48.00
74511;DHT22;62991;50.040;18.400;2022-09-03T17:54:40;22.50;48.20
74511;DHT22;62991;50.040;18.400;2022-09-03T17:57:49;22.40;48.40
74511;DHT22;62991;50.040;18.400;2022-09-03T18:07:53;22.00;48.80
74511;DHT22;62991;50.040;18.400;2022-09-03T18:21:04;21.50;49.60
74511;DHT22;62991;50.040;18.400;2022-09-03T18:24:38;21.40;49.70
74511;DHT22;62991;50.040;18.400;2022-09-03T18:28:04;21.40;49.80
74511;DHT22;62991;50.040;18.400;2022-09-03T18:31:24;21.20;50.00
74511;DHT22;62991;50.040;18.400;2022-09-03T18:34:45;21.20;50.10
74511;DHT22;62991;50.040;18.400;2022-09-03T18:38:04;21.10;50.30
74511;DHT22;62991;50.040;18.400;2022-09-03T18:52:01;20.80;50.80
74511;DHT22;62991;50.040;18.400;2022-09-03T19:02:50;20.50;51.20
74511;DHT22;62991;50.040;18.400;2022-09-03T19:07:14;20.50;51.40
74511;DHT22;62991;50.040;18.400;2022-09-03T19:10:39;20.40;51.60
74511;DHT22;62991;50.040;18.400;2022-09-03T19:14:05;20.30;51.70
74511;DHT22;62991;50.040;18.400;2022-09-03T19:17:30;20.20;51.70
74511;DHT22;62991;50.040;18.400;2022-09-03T19:24:29;20.10;52.00
74511;DHT22;62991;50.040;18.400;2022-09-03T19:28:20;20.00;52.10
74511;DHT22;62991;50.040;18.400;2022-09-03T19:31:44;20.00;52.30
74511;DHT22;62991;50.040;18.400;2022-09-03T19:35:28;19.90;52.40
74511;DHT22;62991;50.040;18.400;2022-09-03T19:45:52;19.80;52.70
74511;DHT22;62991;50.040;18.400;2022-09-03T19:52:59;19.80;53.00
74511;DHT22;62991;50.040;18.400;2022-09-03T19:56:26;19.70;53.00
74511;DHT22;62991;50.040;18.400;2022-09-03T19:59:47;19.70;53.10
74511;DHT22;62991;50.040;18.400;2022-09-03T20:03:07;19.70;53.20
74511;DHT22;62991;50.040;18.400;2022-09-03T20:06:30;19.60;53.30
74511;DHT22;62991;50.040;18.400;2022-09-03T20:09:53;19.60;53.30
74511;DHT22;62991;50.040;18.400;2022-09-03T20:13:17;19.50;53.30
74511;DHT22;62991;50.040;18.400;2022-09-03T20:16:48;19.50;53.40
74511;DHT22;62991;50.040;18.400;2022-09-03T20:23:26;19.40;53.80
74511;DHT22;62991;50.040;18.400;2022-09-03T20:40:24;19.20;54.20
74511;DHT22;62991;50.040;18.400;2022-09-03T20:57:05;19.10;54.50
74511;DHT22;62991;50.040;18.400;2022-09-03T21:00:12;19.10;54.60
74511;DHT22;62991;50.040;18.400;2022-09-03T21:03:18;19.00;54.60
74511;DHT22;62991;50.040;18.400;2022-09-03T21:06:47;19.00;54.70
74511;DHT22;62991;50.040;18.400;2022-09-03T21:10:04;19.00;54.80
74511;DHT22;62991;50.040;18.400;2022-09-03T21:23:26;18.90;55.20
74511;DHT22;62991;50.040;18.400;2022-09-03T21:26:33;18.90;55.40
74511;DHT22;62991;50.040;18.400;2022-09-03T21:30:06;18.90;55.30
74511;DHT22;62991;50.040;18.400;2022-09-03T21:33:30;18.80;55.50
74511;DHT22;62991;50.040;18.400;2022-09-03T21:36:37;18.80;55.60
74511;DHT22;62991;50.040;18.400;2022-09-03T21:39:51;18.80;55.50
74511;DHT22;62991;50.040;18.400;2022-09-03T21:46:06;18.80;55.70
74511;DHT22;62991;50.040;18.400;2022-09-03T21:49:11;18.80;55.70
74511;DHT22;62991;50.040;18.400;2022-09-03T21:52:20;18.80;55.80
74511;DHT22;62991;50.040;18.400;2022-09-03T21:58:46;18.80;55.90
74511;DHT22;62991;50.040;18.400;2022-09-03T22:05:03;18.70;56.00
74511;DHT22;62991;50.040;18.400;2022-09-03T22:08:11;18.70;56.10
74511;DHT22;62991;50.040;18.400;2022-09-03T22:11:20;18.70;56.10
74511;DHT22;62991;50.040;18.400;2022-09-03T22:14:25;18.70;56.20
74511;DHT22;62991;50.040;18.400;2022-09-03T22:17:46;18.70;56.30
74511;DHT22;62991;50.040;18.400;2022-09-03T22:20:47;18.60;56.30
74511;DHT22;62991;50.040;18.400;2022-09-03T22:24:05;18.60;56.40
74511;DHT22;62991;50.040;18.400;2022-09-03T22:27:25;18.60;56.40
74511;DHT22;62991;50.040;18.400;2022-09-03T22:30:37;18.60;56.40
74511;DHT22;62991;50.040;18.400;2022-09-03T22:34:23;18.60;56.50
74511;DHT22;62991;50.040;18.400;2022-09-03T22:44:42;18.50;56.60
74511;DHT22;62991;50.040;18.400;2022-09-03T22:51:07;18.50;56.70
74511;DHT22;62991;50.040;18.400;2022-09-03T22:57:26;18.40;56.80
74511;DHT22;62991;50.040;18.400;2022-09-03T23:00:29;18.40;56.90
74511;DHT22;62991;50.040;18.400;2022-09-03T23:03:40;18.40;57.00
74511;DHT22;62991;50.040;18.400;2022-09-03T23:06:50;18.40;57.00
74511;DHT22;62991;50.040;18.400;2022-09-03T23:10:01;18.40;57.10
74511;DHT22;62991;50.040;18.400;2022-09-03T23:13:15;18.40;57.20
74511;DHT22;62991;50.040;18.400;2022-09-03T23:19:48;18.30;57.20
74511;DHT22;62991;50.040;18.400;2022-09-03T23:23:17;18.30;57.30
74511;DHT22;62991;50.040;18.400;2022-09-03T23:29:42;18.30;57.30
74511;DHT22;62991;50.040;18.400;2022-09-03T23:32:54;18.30;57.50
74511;DHT22;62991;50.040;18.400;2022-09-03T23:36:03;18.30;57.40
74511;DHT22;62991;50.040;18.400;2022-09-03T23:46:00;18.30;57.60
74511;DHT22;62991;50.040;18.400;2022-09-03T23:53:16;18.20;57.60
74511;DHT22;62991;50.040;18.400;2022-09-03T23:56:35;18.20;57.80
74511;DHT22;62991;50.040;18.400;2022-09-03T23:59:59;18.20;57.70
